Time;durP1;ratioP1;P1;durP2;ratioP2;P2;SDS_P1;SDS_P2;PMS_P1;PMS_P2;Temp;Humidity;BMP_temperature;BMP_pressure;BME280_temperature;BME280_humidity;BME280_pressure;Samples;Min_cycle;Max_cycle;Signal;HPM_P1;HPM_P2
2022/10/25 06:59:34;;;;;;;;;2.25;2.00;;;;;17.13;69.23;101526.34;3008496;22;45229;-82
2022/10/25 07:00:44;;;;;;;;;3.50;2.00;;;;;17.14;69.09;101528.03;3014009;22;45247;-82
2022/10/25 07:01:56;;;;;;;;;3.00;2.00;;;;;17.14;68.95;101517.41;3013977;22;46083;-82
2022/10/25 07:03:06;;;;;;;;;1.50;1.50;;;;;17.15;68.70;101520.94;3014371;22;45258;-83
2022/10/25 07:04:16;;;;;;;;;4.25;2.00;;;;;17.16;69.02;101514.75;3014401;22;46151;-83
2022/10/25 07:05:27;;;;;;;;;1.50;1.00;;;;;17.18;68.66;101527.00;3013811;22;44630;-83
2022/10/25 07:06:37;;;;;;;;;2.75;2.00;;;;;17.18;68.65;101520.84;3014239;22;46217;-82
2022/10/25 07:07:48;;;;;;;;;2.00;2.00;;;;;17.20;68.87;101527.78;3014517;22;44582;-81
2022/10/25 07:08:59;;;;;;;;;1.00;1.00;;;;;17.22;68.31;101530.38;3014348;22;45351;-80
2022/10/25 07:10:09;;;;;;;;;3.25;1.00;;;;;17.24;68.63;101535.59;3014618;22;45185;-78
2022/10/25 07:11:20;;;;;;;;;2.25;1.25;;;;;17.24;68.63;101531.16;3014552;22;45090;-78
2022/10/25 07:12:36;;;;;;;;;2.75;2.00;;;;;17.26;68.42;101534.59;3014572;22;44748;-77
2022/10/25 07:13:47;;;;;;;;;2.00;1.00;;;;;17.28;68.18;101539.84;3014231;22;46518;-80
2022/10/25 07:14:57;;;;;;;;;2.00;1.00;;;;;17.28;68.20;101538.06;3014803;22;45081;-78
2022/10/25 07:16:11;;;;;;;;;4.75;1.75;;;;;17.29;68.42;101539.75;3014330;22;45267;-79
2022/10/25 07:17:21;;;;;;;;;6.00;2.75;;;;;17.33;68.58;101540.47;3014382;22;45209;-79
2022/10/25 07:18:33;;;;;;;;;0.00;0.00;;;;;17.31;68.45;101535.22;3015279;22;45448;-80
2022/10/25 07:19:43;;;;;;;;;3.75;2.25;;;;;17.35;68.55;101537.75;3015295;22;44660;-79
2022/10/25 07:20:58;;;;;;;;;2.25;1.00;;;;;17.35;68.12;101538.59;3014123;22;46480;-79
2022/10/25 07:22:08;;;;;;;;;5.25;2.25;;;;;17.36;68.14;101545.63;3014533;22;45184;-80
2022/10/25 07:23:18;;;;;;;;;3.00;1.00;;;;;17.37;68.10;101544.69;3013995;22;46402;-79
2022/10/25 07:24:28;;;;;;;;;5.25;2.00;;;;;17.36;68.11;101542.97;3014604;22;45110;-79
2022/10/25 07:25:39;;;;;;;;;2.00;2.00;;;;;17.38;68.06;101548.22;3014224;22;45130;-79
2022/10/25 07:26:49;;;;;;;;;2.00;2.00;;;;;17.39;67.88;101539.28;3014465;22;45173;-80
2022/10/25 07:27:59;;;;;;;;;1.75;1.00;;;;;17.41;68.00;101548.91;3014071;22;46498;-81
2022/10/25 07:29:10;;;;;;;;;1.25;1.25;;;;;17.41;67.87;101542.75;3015306;22;45144;-80
2022/10/25 07:30:20;;;;;;;;;2.00;2.00;;;;;17.42;67.75;101542.69;3014199;22;45418;-81
2022/10/25 07:31:36;;;;;;;;;1.75;1.75;;;;;17.45;68.06;101544.31;2998441;22;45189;-80
2022/10/25 07:32:47;;;;;;;;;1.25;1.25;;;;;17.47;67.77;101547.75;3003996;22;45316;-80
2022/10/25 07:34:00;;;;;;;;;3.50;1.00;;;;;17.48;67.80;101541.50;3014354;22;44622;-80
2022/10/25 07:35:10;;;;;;;;;1.00;1.00;;;;;17.50;67.61;101547.63;3014316;22;45469;-80
2022/10/25 07:36:20;;;;;;;;;1.00;1.00;;;;;17.54;67.77;101549.19;3014525;22;45248;-80
2022/10/25 07:37:31;;;;;;;;;2.00;2.00;;;;;17.54;67.27;101543.88;3014464;22;45449;-80
2022/10/25 07:38:41;;;;;;;;;2.00;1.00;;;;;17.57;67.42;101544.66;3014330;22;45164;-80
2022/10/25 07:39:51;;;;;;;;;2.00;1.00;;;;;17.56;67.38;101540.28;3014240;22;45286;-80
2022/10/25 07:41:02;;;;;;;;;1.50;1.50;;;;;17.60;67.48;101547.16;3014433;22;45236;-80
2022/10/25 07:42:12;;;;;;;;;2.00;2.00;;;;;17.61;67.55;101543.53;3014453;22;46332;-80
2022/10/25 07:43:24;;;;;;;;;3.50;1.00;;;;;17.62;67.40;101540.81;3014464;22;45390;-80
2022/10/25 07:44:35;;;;;;;;;2.75;1.75;;;;;17.64;66.99;101540.75;3014150;22;46511;-80
2022/10/25 07:45:45;;;;;;;;;3.00;3.00;;;;;17.64;66.95;101538.94;3013259;22;45191;-80
2022/10/25 07:46:55;;;;;;;;;3.00;1.00;;;;;17.66;67.16;101546.84;3013819;22;46613;-81
2022/10/25 07:48:06;;;;;;;;;1.50;1.50;;;;;17.65;66.87;101539.81;3014342;22;45361;-80
2022/10/25 07:49:16;;;;;;;;;4.00;2.00;;;;;17.63;66.84;101542.53;3014359;22;45277;-80
2022/10/25 07:50:27;;;;;;;;;4.50;2.00;;;;;17.64;67.13;101543.41;3014434;22;45240;-80
2022/10/25 07:51:37;;;;;;;;;3.00;2.00;;;;;17.64;66.91;101541.59;3014420;22;45263;-81
2022/10/25 07:52:47;;;;;;;;;3.50;2.00;;;;;17.64;67.45;101554.03;3014569;22;45204;-80
2022/10/25 07:53:58;;;;;;;;;3.25;2.00;;;;;17.62;67.09;101547.94;3014366;22;45502;-80
2022/10/25 07:55:08;;;;;;;;;6.00;4.00;;;;;17.61;67.31;101549.72;2998447;22;45165;-81
2022/10/25 07:56:19;;;;;;;;;4.00;2.25;;;;;17.62;67.09;101551.47;3002963;22;46116;-81
2022/10/25 07:57:29;;;;;;;;;3.00;3.00;;;;;17.62;67.38;101553.25;3014443;22;45177;-80
2022/10/25 07:58:42;;;;;;;;;3.00;2.00;;;;;17.63;67.27;101552.31;3013967;22;45383;-80
2022/10/25 07:59:52;;;;;;;;;4.00;2.00;;;;;17.63;67.58;101558.47;3013741;22;45085;-80
2022/10/25 08:01:06;;;;;;;;;3.00;3.00;;;;;17.64;67.86;101556.69;3014336;22;45329;-80
2022/10/25 08:02:16;;;;;;;;;3.25;2.00;;;;;17.62;67.18;101554.13;3014242;22;44531;-80
2022/10/25 08:03:27;;;;;;;;;2.75;1.75;;;;;17.62;67.17;101555.91;3014259;22;45200;-80
2022/10/25 08:04:37;;;;;;;;;3.00;3.00;;;;;17.64;67.62;101554.03;3014581;22;45159;-80
2022/10/25 08:05:47;;;;;;;;;4.50;4.25;;;;;17.63;67.18;101557.63;3014078;22;47397;-80
2022/10/25 08:07:00;;;;;;;;;5.00;3.25;;;;;17.65;67.92;101561.94;3014398;22;45112;-80
2022/10/25 08:08:11;;;;;;;;;6.50;3.00;;;;;17.64;67.68;101556.69;3013984;22;46138;-81
2022/10/25 08:09:21;;;;;;;;;3.00;2.00;;;;;17.65;67.37;101553.09;3014549;22;45176;-81
2022/10/25 08:10:32;;;;;;;;;1.50;1.50;;;;;17.67;67.58;101553.88;3013961;22;45390;-80
2022/10/25 08:11:42;;;;;;;;;10.00;4.75;;;;;17.72;67.58;101554.50;3014245;22;45271;-84
2022/10/25 08:12:53;;;;;;;;;3.00;3.00;;;;;17.71;67.10;101551.91;3014097;22;45311;-81
2022/10/25 08:14:04;;;;;;;;;7.00;3.00;;;;;17.71;67.46;101550.13;3014088;22;45571;-81
2022/10/25 08:15:15;;;;;;;;;2.75;2.50;;;;;17.69;67.39;101537.84;3014349;22;46151;-82
2022/10/25 08:16:25;;;;;;;;;3.50;3.00;;;;;17.69;67.62;101545.81;2997673;22;45100;-81
2022/10/25 08:17:35;;;;;;;;;5.00;2.50;;;;;17.69;67.36;101545.81;3002865;22;45263;-81
2022/10/25 08:18:46;;;;;;;;;8.00;3.00;;;;;17.65;67.37;101545.13;3014252;22;44521;-82
2022/10/25 08:19:56;;;;;;;;;6.25;3.00;;;;;17.65;67.73;101545.13;3012787;22;48210;-83
2022/10/25 08:21:07;;;;;;;;;3.00;1.75;;;;;17.62;67.18;101540.81;3013629;22;45385;-83
2022/10/25 08:22:17;;;;;;;;;3.50;3.50;;;;;17.64;67.69;101533.63;3014315;22;45242;-83
2022/10/25 08:23:28;;;;;;;;;5.00;3.25;;;;;17.64;67.26;101532.75;3014586;22;44519;-85
2022/10/25 08:24:38;;;;;;;;;3.00;3.00;;;;;17.64;67.19;101530.97;3014153;22;45254;-84
2022/10/25 08:25:49;;;;;;;;;2.25;1.50;;;;;17.63;67.05;101534.56;3014317;22;45173;-84
2022/10/25 08:26:59;;;;;;;;;3.25;3.00;;;;;17.63;67.52;101531.91;3013691;22;45460;-83
2022/10/25 08:28:10;;;;;;;;;5.00;4.00;;;;;17.64;67.48;101538.94;3011772;22;44712;-83
2022/10/25 08:29:20;;;;;;;;;6.75;3.25;;;;;17.64;67.51;101544.25;2997488;22;46201;-86
2022/10/25 08:30:30;;;;;;;;;2.50;2.50;;;;;17.62;67.43;101546.16;3002748;22;45372;-84
2022/10/25 08:31:41;;;;;;;;;2.50;2.50;;;;;17.62;67.53;101550.59;3014088;22;45642;-83
2022/10/25 08:32:51;;;;;;;;;3.75;2.00;;;;;17.61;67.12;101548.84;3012364;22;45178;-85
2022/10/25 08:34:02;;;;;;;;;5.00;2.00;;;;;17.62;67.36;101540.81;3012601;22;45226;-87
2022/10/25 08:35:14;;;;;;;;;2.00;2.00;;;;;17.60;67.11;101537.38;2998101;22;45097;-84
2022/10/25 08:36:25;;;;;;;;;4.75;3.00;;;;;17.57;66.78;101544.66;2986157;22;47676;-81
2022/10/25 08:37:35;;;;;;;;;3.75;3.00;;;;;17.57;66.99;101536.66;3002689;22;45288;-83
2022/10/25 08:38:46;;;;;;;;;5.50;2.75;;;;;17.59;66.75;101548.06;3013471;22;45190;-82
2022/10/25 08:39:56;;;;;;;;;2.50;2.00;;;;;17.57;66.94;101541.97;3014507;22;44567;-81
2022/10/25 08:41:27;;;;;;;;;2.00;2.00;;;;;17.59;66.79;101534.78;3013870;22;45390;-81
2022/10/25 08:43:00;;;;;;;;;2.25;1.00;;;;;17.57;66.81;101526.91;3014264;22;44566;-81
2022/10/25 08:44:10;;;;;;;;;2.00;1.00;;;;;17.57;66.50;101526.03;3013915;22;45477;-81
2022/10/25 08:45:31;;;;;;;;;3.00;1.50;;;;;17.55;66.73;101536.75;3013974;22;44934;-81
2022/10/25 08:46:51;;;;;;;;;2.50;1.75;;;;;17.54;66.50;101538.53;3014109;22;46541;-81
2022/10/25 08:48:11;;;;;;;;;1.00;1.00;;;;;17.51;65.95;101533.38;3014511;22;44585;-81
2022/10/25 08:49:35;;;;;;;;;2.00;2.00;;;;;17.52;66.17;101537.78;3014388;22;46215;-81
2022/10/25 08:50:51;;;;;;;;;2.00;2.00;;;;;17.50;66.24;101539.66;3014209;22;44566;-81
2022/10/25 08:52:05;;;;;;;;;3.00;2.00;;;;;17.50;66.51;101542.31;3013755;22;45341;-81
2022/10/25 08:53:21;;;;;;;;;4.00;2.00;;;;;17.52;66.36;101544.88;3013941;22;44531;-81
2022/10/25 08:54:36;;;;;;;;;3.25;2.25;;;;;17.53;66.22;101541.28;3014102;22;46162;-81
2022/10/25 08:55:48;;;;;;;;;5.00;2.00;;;;;17.55;66.56;101534.09;2998058;22;44618;-81
2022/10/25 08:57:24;;;;;;;;;1.50;1.50;;;;;17.60;66.34;101528.56;3002968;22;45274;-81
2022/10/25 08:58:42;;;;;;;;;1.00;1.00;;;;;17.60;66.64;101542.69;3013970;22;45317;-81
2022/10/25 08:59:55;;;;;;;;;3.00;2.00;;;;;17.61;66.27;101533.78;3013780;22;45347;-81
2022/10/25 09:01:13;;;;;;;;;3.00;2.00;;;;;17.63;65.99;101536.38;2998296;22;45169;-81
2022/10/25 09:02:38;;;;;;;;;2.00;2.00;;;;;17.63;65.45;101536.38;2988997;22;47306;-81
2022/10/25 09:03:48;;;;;;;;;0.50;0.50;;;;;17.65;65.65;101537.16;2990632;22;45100;-81
2022/10/25 09:04:59;;;;;;;;;1.50;1.50;;;;;17.66;65.58;101538.84;3002691;22;45187;-81
2022/10/25 09:06:28;;;;;;;;;2.00;0.00;;;;;17.68;65.79;101544.13;3014390;22;45160;-81
2022/10/25 09:08:20;;;;;;;;;0.00;0.00;;;;;17.69;65.88;101540.50;3014204;22;45344;-82
2022/10/25 09:09:54;;;;;;;;;1.00;1.00;;;;;17.68;65.36;101538.81;3014438;22;45271;-81
2022/10/25 09:11:32;;;;;;;;;2.75;1.00;;;;;17.71;65.45;101541.28;3014119;22;46424;-81
2022/10/25 09:13:41;;;;;;;;;2.25;1.75;;;;;17.70;64.89;101536.91;3014284;22;45184;-81
2022/10/25 09:15:06;;;;;;;;;0.25;0.00;;;;;17.72;64.71;101538.56;2932356;23;45718;-81
2022/10/25 09:16:28;;;;;;;;;1.00;1.00;;;;;17.72;64.61;101535.03;2954698;23;45214;-80
2022/10/25 09:17:50;;;;;;;;;2.50;1.00;;;;;17.69;63.67;101528.06;2954771;23;45249;-81
2022/10/25 09:19:08;;;;;;;;;1.00;1.00;;;;;17.66;64.65;101522.91;2954553;23;44749;-81
2022/10/25 09:20:39;;;;;;;;;1.75;0.75;;;;;17.69;64.59;101538.72;2977175;22;45216;-81
2022/10/25 09:21:59;;;;;;;;;1.25;1.25;;;;;17.67;64.95;101532.63;3014167;22;45172;-81
2022/10/25 09:23:15;;;;;;;;;1.00;1.00;;;;;17.70;63.55;101532.47;3014134;22;45206;-81
2022/10/25 09:24:56;;;;;;;;;1.25;1.00;;;;;17.67;63.63;101516.66;3014175;22;45335;-81
2022/10/25 09:26:22;;;;;;;;;3.00;0.00;;;;;17.66;63.09;101517.59;3013944;22;45227;-81
2022/10/25 09:27:35;;;;;;;;;1.50;1.00;;;;;17.64;63.38;101515.03;3014213;22;45152;-81
2022/10/25 09:28:56;;;;;;;;;1.00;1.00;;;;;17.65;63.69;101526.53;3013486;22;46140;-81
2022/10/25 09:30:09;;;;;;;;;2.75;0.00;;;;;17.64;63.08;101523.00;3014535;22;45089;-81
2022/10/25 09:31:24;;;;;;;;;1.00;1.00;;;;;17.65;64.13;101526.53;3013679;22;45207;-81
2022/10/25 09:32:42;;;;;;;;;1.00;1.00;;;;;17.66;64.20;101534.41;3013938;22;45224;-81
2022/10/25 09:33:59;;;;;;;;;1.00;1.00;;;;;17.67;64.44;101537.94;3013667;22;46218;-81
2022/10/25 09:35:22;;;;;;;;;0.00;0.00;;;;;17.71;63.95;101541.28;3014432;22;45098;-81
2022/10/25 09:36:41;;;;;;;;;1.50;1.00;;;;;17.73;64.20;101545.59;3013695;22;46289;-80
2022/10/25 09:37:58;;;;;;;;;2.00;1.00;;;;;17.75;64.90;101538.38;3014217;22;45147;-81
2022/10/25 09:39:44;;;;;;;;;0.50;0.00;;;;;17.77;63.57;101531.22;3014177;22;45324;-81
2022/10/25 09:41:05;;;;;;;;;4.75;1.50;;;;;17.77;64.07;101530.34;3013813;22;45206;-81
2022/10/25 09:42:20;;;;;;;;;6.25;4.50;;;;;17.80;64.46;101530.19;3013463;22;45388;-82
2022/10/25 09:43:56;;;;;;;;;1.25;1.00;;;;;17.80;64.82;101527.53;3013856;22;45263;-81
2022/10/25 09:45:20;;;;;;;;;1.00;1.00;;;;;17.82;64.48;101527.44;3014506;22;46162;-82
2022/10/25 09:46:56;;;;;;;;;2.00;2.00;;;;;17.84;64.70;101522.91;3014512;22;45219;-83
2022/10/25 09:48:10;;;;;;;;;1.25;1.00;;;;;17.86;64.38;101531.66;3014679;22;46205;-81
2022/10/25 09:49:30;;;;;;;;;1.25;0.75;;;;;17.87;64.82;101528.94;3014773;22;45146;-81
2022/10/25 09:50:54;;;;;;;;;1.25;1.25;;;;;17.89;64.48;101526.19;3014546;22;45505;-81
2022/10/25 09:52:35;;;;;;;;;1.00;0.00;;;;;17.91;64.30;101526.09;3014648;22;45350;-81
2022/10/25 09:53:46;;;;;;;;;2.00;1.00;;;;;17.92;64.67;101531.38;3014619;22;45248;-82
2022/10/25 09:55:10;;;;;;;;;1.50;0.00;;;;;17.93;64.92;101537.53;3013457;22;45273;-82
2022/10/25 09:56:21;;;;;;;;;1.00;1.00;;;;;17.93;64.60;101529.53;3013908;22;46199;-82
2022/10/25 09:57:31;;;;;;;;;1.25;1.00;;;;;17.98;64.14;101535.47;3014721;22;45105;-82
2022/10/25 09:58:46;;;;;;;;;1.25;1.25;;;;;17.99;64.26;101530.09;3014255;22;45444;-82
2022/10/25 09:59:56;;;;;;;;;1.00;1.00;;;;;18.02;64.76;101536.19;3014042;22;45209;-82
2022/10/25 10:01:22;;;;;;;;;2.75;2.00;;;;;18.04;64.09;101536.97;3014598;22;46262;-82
2022/10/25 10:02:32;;;;;;;;;2.00;2.00;;;;;18.09;64.36;101532.28;3014822;22;45359;-82
2022/10/25 10:03:42;;;;;;;;;1.00;1.00;;;;;18.11;64.25;101525.06;3014675;22;46036;-82
2022/10/25 10:04:53;;;;;;;;;1.00;1.00;;;;;18.15;64.54;101515.16;3014726;22;45152;-81
2022/10/25 10:06:37;;;;;;;;;2.00;2.00;;;;;18.22;64.45;101517.41;3014279;22;45396;-81
2022/10/25 10:07:49;;;;;;;;;1.75;1.75;;;;;18.25;64.58;101510.22;3014658;22;44495;-82
2022/10/25 10:09:04;;;;;;;;;1.25;1.00;;;;;18.28;64.50;101512.69;2998492;22;45509;-81
2022/10/25 10:10:19;;;;;;;;;3.00;1.00;;;;;18.31;63.81;101505.44;3004581;22;45292;-81
2022/10/25 10:11:32;;;;;;;;;2.25;1.00;;;;;18.30;64.52;101510.81;3013808;22;47502;-81
2022/10/25 10:12:55;;;;;;;;;2.00;2.00;;;;;18.35;64.52;101513.25;3014690;22;45157;-82
2022/10/25 10:14:35;;;;;;;;;0.75;0.75;;;;;18.35;64.47;101507.94;2998080;22;48146;-81
2022/10/25 10:15:53;;;;;;;;;1.00;1.00;;;;;18.36;64.29;101506.97;3010183;22;45558;-81
2022/10/25 10:17:10;;;;;;;;;4.00;2.00;;;;;18.37;64.59;101514.84;3014542;22;46474;-81
2022/10/25 10:18:28;;;;;;;;;2.00;2.00;;;;;18.40;64.13;101506.72;2998478;22;44626;-82
2022/10/25 10:19:40;;;;;;;;;1.00;1.00;;;;;18.42;63.99;101511.97;2998329;22;46842;-81
2022/10/25 10:21:05;;;;;;;;;2.75;2.25;;;;;18.46;64.66;101515.31;3003424;22;44862;-81
2022/10/25 10:22:16;;;;;;;;;2.00;2.00;;;;;18.44;64.47;101508.28;3014522;22;46104;-82
2022/10/25 10:23:43;;;;;;;;;0.25;0.25;;;;;18.46;64.53;101512.66;3014790;22;45184;-82
2022/10/25 10:24:59;;;;;;;;;3.50;2.50;;;;;18.49;64.31;101512.50;3014434;22;45452;-83
2022/10/25 10:26:22;;;;;;;;;2.00;1.25;;;;;18.52;64.05;101512.34;3014456;22;44555;-83
2022/10/25 10:27:33;;;;;;;;;2.75;1.00;;;;;18.52;63.66;101518.50;2998131;22;47122;-82
2022/10/25 10:28:45;;;;;;;;;2.00;1.50;;;;;18.54;63.40;101518.44;3002977;22;45358;-83
2022/10/25 10:30:04;;;;;;;;;2.00;2.00;;;;;18.57;63.89;101509.41;2997191;22;46505;-85
2022/10/25 10:31:16;;;;;;;;;1.75;1.75;;;;;18.61;63.90;101511.81;3005156;22;44720;-86
2022/10/25 10:32:45;;;;;;;;;1.25;1.25;;;;;18.66;63.94;101519.56;2997123;22;46632;-85
2022/10/25 10:33:55;;;;;;;;;3.00;2.00;;;;;18.67;64.07;101507.94;2990405;22;45201;-85
2022/10/25 10:35:41;;;;;;;;;3.00;1.00;;;;;18.71;63.48;101513.97;3002777;22;46273;-85
2022/10/25 10:37:15;;;;;;;;;5.00;1.75;;;;;18.74;63.22;101511.16;2998146;22;44692;-84
2022/10/25 10:38:27;;;;;;;;;1.25;1.25;;;;;18.72;63.51;101518.34;3007793;22;45520;-84
2022/10/25 10:39:59;;;;;;;;;3.00;2.50;;;;;18.74;63.46;101519.13;3014423;22;45140;-84
2022/10/25 10:41:28;;;;;;;;;3.00;2.00;;;;;18.72;63.36;101513.88;3013410;22;45372;-87
2022/10/25 10:42:41;;;;;;;;;1.00;1.00;;;;;18.73;63.42;101520.94;3014001;22;45157;-80
2022/10/25 10:44:11;;;;;;;;;4.00;1.00;;;;;18.75;63.59;101516.38;3013033;22;45610;-80
2022/10/25 10:45:22;;;;;;;;;3.50;3.50;;;;;18.73;64.21;101504.09;3013631;22;45362;-80
2022/10/25 10:46:32;;;;;;;;;2.25;2.00;;;;;18.73;64.09;101509.41;3013858;22;46472;-80
2022/10/25 10:47:54;;;;;;;;;2.50;2.25;;;;;18.76;63.46;101509.25;3013995;22;45317;-80
2022/10/25 10:49:05;;;;;;;;;4.00;2.75;;;;;18.77;63.42;101513.63;2997781;22;46462;-80
2022/10/25 10:50:21;;;;;;;;;4.00;4.00;;;;;18.79;63.46;101511.75;3002705;22;44721;-80
2022/10/25 10:51:41;;;;;;;;;2.75;2.75;;;;;18.83;63.06;101513.28;3013810;22;45354;-80
2022/10/25 10:52:54;;;;;;;;;3.25;2.25;;;;;18.85;63.02;101515.84;3013570;22;45224;-79
2022/10/25 10:54:26;;;;;;;;;7.50;3.00;;;;;18.84;63.31;101500.84;3014350;22;46698;-80
2022/10/25 10:55:58;;;;;;;;;5.00;3.75;;;;;18.85;63.09;101502.53;3014413;22;45161;-80
2022/10/25 10:57:26;;;;;;;;;5.00;2.00;;;;;18.86;62.96;101491.81;3013215;22;45441;-80
2022/10/25 10:58:40;;;;;;;;;4.00;3.00;;;;;18.92;63.59;101489.72;3013847;22;45161;-80
2022/10/25 10:59:54;;;;;;;;;2.25;1.50;;;;;18.96;62.94;101494.81;3013739;22;45356;-79
2022/10/25 11:01:28;;;;;;;;;5.50;3.75;;;;;19.00;63.27;101485.69;3014380;22;45287;-80
2022/10/25 11:02:40;;;;;;;;;2.00;2.00;;;;;19.05;63.05;101490.75;3014220;22;46189;-80
2022/10/25 11:03:56;;;;;;;;;7.25;4.00;;;;;19.05;63.22;101484.56;3014228;22;45418;-80
2022/10/25 11:05:19;;;;;;;;;3.00;2.25;;;;;19.08;62.84;101485.25;3014253;22;46199;-80
2022/10/25 11:06:34;;;;;;;;;3.00;2.25;;;;;19.09;62.75;101484.31;3013918;22;44598;-80
2022/10/25 11:07:44;;;;;;;;;2.75;2.75;;;;;19.11;63.04;101481.56;3014125;22;45447;-80
2022/10/25 11:09:16;;;;;;;;;2.75;2.00;;;;;19.11;62.55;101477.06;3013901;22;45374;-80
2022/10/25 11:10:32;;;;;;;;;1.25;1.25;;;;;19.11;62.69;101481.56;3014437;22;45323;-80
2022/10/25 11:11:44;;;;;;;;;1.75;1.75;;;;;19.11;63.03;101471.75;3014309;22;45188;-80
2022/10/25 11:13:17;;;;;;;;;3.00;2.00;;;;;19.14;62.53;101467.22;3014032;22;45334;-80
2022/10/25 11:14:27;;;;;;;;;3.00;3.00;;;;;19.10;62.93;101464.72;3014522;22;44523;-80
2022/10/25 11:15:40;;;;;;;;;3.00;3.00;;;;;19.15;63.02;101479.56;3014181;22;46462;-80
2022/10/25 11:17:01;;;;;;;;;2.00;2.00;;;;;19.12;63.05;101468.16;3014594;22;45285;-80
2022/10/25 11:18:12;;;;;;;;;3.75;3.00;;;;;19.16;62.45;101468.81;3014491;22;46472;-80
2022/10/25 11:19:50;;;;;;;;;3.00;2.00;;;;;19.21;62.78;101465.94;3014051;22;45283;-80
2022/10/25 11:21:26;;;;;;;;;4.00;3.00;;;;;19.21;62.41;101469.44;3014316;22;45332;-79
2022/10/25 11:22:57;;;;;;;;;3.75;2.25;;;;;19.25;62.42;101472.78;3014144;22;45157;-79
2022/10/25 11:24:21;;;;;;;;;3.00;2.00;;;;;19.25;62.38;101466.59;3014340;22;45428;-79
2022/10/25 11:25:40;;;;;;;;;2.75;2.00;;;;;19.25;62.43;101456.81;3014257;22;44615;-79
2022/10/25 11:27:04;;;;;;;;;3.00;2.25;;;;;19.27;62.02;101457.56;3014357;22;45295;-79
2022/10/25 11:28:38;;;;;;;;;6.00;2.00;;;;;19.26;62.08;101463.84;3014471;22;45303;-79
2022/10/25 11:30:04;;;;;;;;;1.75;1.75;;;;;19.26;62.02;101466.50;3013650;22;45559;-79
2022/10/25 11:31:56;;;;;;;;;2.25;2.25;;;;;19.27;62.27;101460.22;3014481;22;45187;-79
2022/10/25 11:33:25;;;;;;;;;4.25;3.00;;;;;19.26;62.31;101463.84;2954390;23;45459;-79
2022/10/25 11:34:43;;;;;;;;;3.75;3.00;;;;;19.26;62.51;101463.00;2954780;23;45206;-79
2022/10/25 11:36:08;;;;;;;;;3.50;1.00;;;;;19.27;62.48;101456.72;3011778;22;46168;-79
2022/10/25 11:37:33;;;;;;;;;4.00;2.00;;;;;19.29;62.87;101453.00;3014799;22;45161;-79
2022/10/25 11:38:46;;;;;;;;;3.50;3.00;;;;;19.30;62.32;101459.19;3014009;22;45228;-80
2022/10/25 11:40:16;;;;;;;;;2.50;2.00;;;;;19.31;62.09;101463.59;3014308;22;45142;-80
2022/10/25 11:42:01;;;;;;;;;2.00;2.00;;;;;19.33;62.59;101461.69;3013859;22;45225;-79
2022/10/25 11:43:31;;;;;;;;;2.25;2.00;;;;;19.34;62.36;101456.25;2953636;23;45490;-79
2022/10/25 11:45:07;;;;;;;;;3.00;1.75;;;;;19.33;62.37;101451.03;2980919;22;45497;-79
2022/10/25 11:46:31;;;;;;;;;2.25;1.00;;;;;19.34;62.13;101448.25;3014318;22;44719;-79
2022/10/25 11:47:57;;;;;;;;;3.00;3.00;;;;;19.32;62.14;101450.16;3014146;22;46325;-79
2022/10/25 11:49:20;;;;;;;;;2.00;1.25;;;;;19.34;62.24;101450.94;3014501;22;45244;-79
2022/10/25 11:50:37;;;;;;;;;3.00;1.25;;;;;19.29;62.22;101455.66;3014164;22;45333;-80
2022/10/25 11:52:14;;;;;;;;;2.25;2.00;;;;;19.28;62.15;101451.31;3014498;22;44553;-79
2022/10/25 11:54:03;;;;;;;;;2.25;1.50;;;;;19.29;62.22;101458.34;3013890;22;45394;-80
2022/10/25 11:55:25;;;;;;;;;2.25;2.00;;;;;19.31;62.07;101448.44;2994519;22;45286;-80
2022/10/25 11:56:40;;;;;;;;;1.75;1.00;;;;;19.31;61.94;101448.44;3013873;22;45241;-79
2022/10/25 11:58:26;;;;;;;;;2.00;2.00;;;;;19.33;62.00;101443.88;3014653;22;45372;-79
2022/10/25 11:59:55;;;;;;;;;2.00;1.00;;;;;19.36;61.72;101453.50;2963513;22;45242;-80
2022/10/25 12:01:31;;;;;;;;;1.00;1.00;;;;;19.36;62.07;101448.16;3014100;22;44672;-80
2022/10/25 12:02:59;;;;;;;;;2.25;2.00;;;;;19.36;62.33;101448.16;2958190;22;45755;-80
2022/10/25 12:04:31;;;;;;;;;3.00;2.50;;;;;19.41;62.10;101447.91;3014442;22;44578;-80
2022/10/25 12:06:05;;;;;;;;;2.00;2.00;;;;;19.40;61.71;101432.84;3013855;22;45588;-80
2022/10/25 12:07:50;;;;;;;;;2.25;1.00;;;;;19.41;62.20;101432.75;2997782;22;45299;-80
2022/10/25 12:09:03;;;;;;;;;1.00;1.00;;;;;19.43;61.98;101428.19;2981705;22;47975;-80
2022/10/25 12:10:38;;;;;;;;;2.00;2.00;;;;;19.44;61.40;101437.91;3003517;22;45272;-79
2022/10/25 12:11:57;;;;;;;;;2.25;1.25;;;;;19.43;61.52;101430.84;3014147;22;45331;-79
2022/10/25 12:13:17;;;;;;;;;2.00;2.00;;;;;19.45;61.52;101436.97;3013381;22;45152;-79
2022/10/25 12:14:38;;;;;;;;;3.00;2.50;;;;;19.47;61.32;101431.53;3013778;22;46346;-80
2022/10/25 12:15:52;;;;;;;;;1.00;1.00;;;;;19.45;61.71;101426.31;3014002;22;44587;-79
2022/10/25 12:17:09;;;;;;;;;1.00;1.00;;;;;19.48;61.85;101424.41;2997267;22;47327;-80
2022/10/25 12:18:33;;;;;;;;;2.50;2.00;;;;;19.50;61.56;101427.84;3004508;22;45275;-79
2022/10/25 12:19:47;;;;;;;;;2.00;2.00;;;;;19.51;61.82;101427.72;3013966;22;45442;-80
2022/10/25 12:20:58;;;;;;;;;2.00;2.00;;;;;19.53;61.68;101422.31;3014099;22;45157;-79
2022/10/25 12:22:16;;;;;;;;;3.00;1.50;;;;;19.53;61.68;101420.50;3014102;22;46481;-79
2022/10/25 12:23:29;;;;;;;;;1.50;1.50;;;;;19.54;61.43;101416.88;2998001;22;45242;-79
2022/10/25 12:24:49;;;;;;;;;1.75;1.75;;;;;19.55;61.34;101413.28;3003327;22;46236;-79
2022/10/25 12:26:21;;;;;;;;;2.50;1.00;;;;;19.56;61.42;101419.44;3014415;22;45095;-79
2022/10/25 12:27:33;;;;;;;;;1.75;1.75;;;;;19.56;61.66;101417.66;3014458;22;45378;-79
2022/10/25 12:28:46;;;;;;;;;1.75;1.75;;;;;19.56;61.37;101419.44;3014050;22;44562;-79
2022/10/25 12:30:04;;;;;;;;;2.75;2.00;;;;;19.56;61.77;101412.31;2997874;22;47854;-79
2022/10/25 12:31:19;;;;;;;;;1.00;1.00;;;;;19.58;61.45;101420.25;3004971;22;44615;-79
2022/10/25 12:32:40;;;;;;;;;1.00;1.00;;;;;19.59;61.38;101407.75;3013951;22;46589;-79
2022/10/25 12:34:11;;;;;;;;;3.50;3.25;;;;;19.59;61.63;101405.06;2998060;22;45261;-79
2022/10/25 12:35:30;;;;;;;;;3.00;1.25;;;;;19.57;61.68;101402.50;3007525;22;45307;-79
2022/10/25 12:36:50;;;;;;;;;2.25;1.00;;;;;19.56;61.36;101404.31;3014149;22;44653;-79
2022/10/25 12:38:10;;;;;;;;;1.50;1.50;;;;;19.56;61.65;101409.66;2998146;22;47882;-79
2022/10/25 12:39:39;;;;;;;;;4.75;2.00;;;;;19.56;61.65;101399.00;2998231;22;44607;-79
2022/10/25 12:40:53;;;;;;;;;1.75;1.75;;;;;19.56;61.49;101399.00;3006786;22;45375;-79
2022/10/25 12:42:12;;;;;;;;;2.00;2.00;;;;;19.58;61.43;101395.38;3012714;22;45118;-79
2022/10/25 12:43:33;;;;;;;;;3.00;1.50;;;;;19.62;61.60;101395.09;3013365;22;45294;-79
2022/10/25 12:45:21;;;;;;;;;3.00;2.00;;;;;19.63;61.94;101398.63;3014285;22;45256;-79
2022/10/25 12:47:05;;;;;;;;;3.50;2.00;;;;;19.64;61.56;101395.00;3013858;22;45287;-80
2022/10/25 12:48:18;;;;;;;;;4.00;2.00;;;;;19.66;61.70;101390.41;3005502;22;45518;-79
2022/10/25 12:49:56;;;;;;;;;5.25;2.00;;;;;19.67;61.62;101387.69;3013858;22;46456;-79
2022/10/25 12:51:12;;;;;;;;;2.00;2.00;;;;;19.69;61.50;101384.91;2984549;22;45231;-79
2022/10/25 12:52:38;;;;;;;;;1.75;1.75;;;;;19.70;61.73;101386.63;2988414;22;47216;-79
2022/10/25 12:53:54;;;;;;;;;3.50;2.50;;;;;19.72;61.47;101384.72;3006303;22;45171;-79
2022/10/25 12:55:14;;;;;;;;;4.25;2.75;;;;;19.73;61.60;101385.59;3014124;22;45371;-79
2022/10/25 12:56:24;;;;;;;;;1.75;1.75;;;;;19.72;61.79;101384.72;3014336;22;45396;-79
2022/10/25 12:58:02;;;;;;;;;2.25;2.25;;;;;19.72;61.71;101379.38;3013842;22;45523;-79
2022/10/25 12:59:37;;;;;;;;;3.00;1.75;;;;;19.73;61.31;101380.25;3012062;22;45140;-79
2022/10/25 13:01:25;;;;;;;;;2.50;2.25;;;;;19.72;61.40;101379.38;2997832;22;47180;-80
2022/10/25 13:03:27;;;;;;;;;1.25;1.25;;;;;19.75;61.62;101384.53;2953429;22;45484;-79
2022/10/25 13:04:58;;;;;;;;;1.00;1.00;;;;;19.75;61.56;101379.22;3013976;22;45348;-79
2022/10/25 13:06:26;;;;;;;;;2.00;2.00;;;;;19.74;60.98;101381.94;2998103;22;45200;-79
2022/10/25 13:07:37;;;;;;;;;2.50;1.75;;;;;19.71;61.11;101372.31;3006026;22;46499;-79